createdAt,value
2022-11-12T00:01:15.595Z,5.20
2022-11-12T00:03:43.614Z,5.20
2022-11-12T00:06:11.658Z,5.20
2022-11-12T00:08:41.034Z,5.30
2022-11-12T00:11:09.078Z,5.30
2022-11-12T00:13:37.859Z,5.30
2022-11-12T00:16:06.828Z,5.30
2022-11-12T00:18:34.861Z,5.30
2022-11-12T00:21:02.899Z,5.40
2022-11-12T00:23:30.887Z,5.50
2022-11-12T00:26:03.677Z,5.50
2022-11-12T00:28:37.377Z,5.50
2022-11-12T00:31:10.979Z,5.50
2022-11-12T00:33:41.964Z,5.50
2022-11-12T00:36:10.803Z,5.50
2022-11-12T00:38:38.904Z,5.40
2022-11-12T00:41:08.435Z,5.50
2022-11-12T00:43:36.488Z,5.40
2022-11-12T00:46:04.608Z,5.40
2022-11-12T00:48:32.603Z,5.40
2022-11-12T00:51:01.940Z,5.40
2022-11-12T00:53:29.951Z,5.40
2022-11-12T00:56:02.377Z,5.50
2022-11-12T00:58:32.858Z,5.40
2022-11-12T01:01:06.882Z,5.40
2022-11-12T01:03:35.038Z,5.40
2022-11-12T01:06:04.591Z,5.40
2022-11-12T01:08:32.637Z,5.40
2022-11-12T01:11:07.431Z,5.40
2022-11-12T01:13:41.429Z,5.30
2022-11-12T01:16:14.645Z,5.30
2022-11-12T01:18:43.254Z,5.30
2022-11-12T01:21:11.701Z,5.30
2022-11-12T01:23:41.358Z,5.30
2022-11-12T01:26:11.338Z,5.30
2022-11-12T01:28:40.985Z,5.30
2022-11-12T01:31:14.845Z,5.30
2022-11-12T01:33:44.044Z,5.40
2022-11-12T01:36:13.771Z,5.40
2022-11-12T01:38:43.062Z,5.40
2022-11-12T01:41:13.309Z,5.30
2022-11-12T01:43:42.883Z,5.30
2022-11-12T01:46:18.170Z,5.30
2022-11-12T01:48:50.745Z,5.30
2022-11-12T01:51:20.231Z,5.30
2022-11-12T01:53:52.240Z,5.30
2022-11-12T01:56:22.123Z,5.30
2022-11-12T01:59:00.953Z,5.30
2022-11-12T02:01:29.120Z,5.40
2022-11-12T02:03:57.911Z,5.40
2022-11-12T02:06:26.453Z,5.40
2022-11-12T02:08:55.086Z,5.40
2022-11-12T02:11:23.378Z,5.30
2022-11-12T02:13:59.302Z,5.30
2022-11-12T02:16:30.034Z,5.30
2022-11-12T02:18:58.244Z,5.30
2022-11-12T02:21:28.553Z,5.30
2022-11-12T02:24:01.869Z,5.30
2022-11-12T02:26:33.825Z,5.20
2022-11-12T02:29:02.100Z,5.20
2022-11-12T02:31:30.174Z,5.20
2022-11-12T02:33:58.374Z,5.10
2022-11-12T02:36:28.117Z,5.10
2022-11-12T02:38:56.151Z,5.10
2022-11-12T02:41:24.614Z,5.10
2022-11-12T02:43:52.613Z,5.10
2022-11-12T02:46:20.709Z,5.20
2022-11-12T02:48:48.957Z,5.20
2022-11-12T02:51:17.033Z,5.30
2022-11-12T02:53:46.408Z,5.30
2022-11-12T02:56:14.421Z,5.20
2022-11-12T02:58:42.431Z,5.20
2022-11-12T03:01:10.495Z,5.10
2022-11-12T03:03:38.558Z,5.10
2022-11-12T03:06:07.381Z,5.10
2022-11-12T03:08:35.414Z,5.10
2022-11-12T03:11:09.902Z,5.10
2022-11-12T03:13:38.428Z,5.00
2022-11-12T03:16:07.044Z,4.90
2022-11-12T03:18:35.281Z,4.80
2022-11-12T03:21:03.326Z,4.70
2022-11-12T03:23:31.663Z,4.60
2022-11-12T03:25:59.809Z,4.60
2022-11-12T03:28:29.480Z,4.50
2022-11-12T03:30:59.847Z,4.50
2022-11-12T03:33:28.183Z,4.50
2022-11-12T03:35:56.227Z,4.50
2022-11-12T03:38:24.580Z,4.40
2022-11-12T03:40:52.921Z,4.40
2022-11-12T03:43:20.921Z,4.40
2022-11-12T03:45:50.312Z,4.30
2022-11-12T03:48:18.319Z,4.20
2022-11-12T03:50:46.358Z,4.20
2022-11-12T03:53:14.390Z,4.10
2022-11-12T03:55:42.466Z,4.20
2022-11-12T03:58:10.488Z,4.20
2022-11-12T04:00:38.583Z,4.20
2022-11-12T04:03:07.957Z,4.20
2022-11-12T04:05:53.362Z,4.20
2022-11-12T04:08:39.258Z,4.20
2022-11-12T04:11:10.018Z,4.10
2022-11-12T04:13:38.627Z,4.10
2022-11-12T04:16:26.866Z,4.00
2022-11-12T04:19:15.923Z,4.00
2022-11-12T04:21:51.956Z,4.00
2022-11-12T04:24:39.417Z,4.10
2022-11-12T04:27:09.386Z,4.10
2022-11-12T04:29:55.203Z,4.10
2022-11-12T04:32:23.883Z,4.00
2022-11-12T04:34:53.450Z,4.00
2022-11-12T04:37:23.574Z,4.00
2022-11-12T04:39:52.037Z,4.00
2022-11-12T04:42:49.018Z,3.90
2022-11-12T04:45:17.243Z,4.00
2022-11-12T04:47:45.367Z,4.00
2022-11-12T04:50:17.900Z,4.00
2022-11-12T04:52:46.023Z,4.00
2022-11-12T04:55:14.019Z,4.00
2022-11-12T04:57:42.077Z,4.00
2022-11-12T05:00:11.915Z,4.00
2022-11-12T05:02:39.934Z,4.00
2022-11-12T05:05:08.781Z,3.90
2022-11-12T05:07:38.182Z,3.90
2022-11-12T05:10:06.888Z,3.90
2022-11-12T05:12:34.994Z,3.80
2022-11-12T05:15:03.279Z,3.80
2022-11-12T05:17:31.301Z,3.70
2022-11-12T05:19:59.298Z,3.70
2022-11-12T05:22:43.348Z,3.80
2022-11-12T05:25:16.825Z,3.70
2022-11-12T05:27:44.837Z,3.70
2022-11-12T05:30:13.804Z,3.70
2022-11-12T05:32:41.834Z,3.80
2022-11-12T05:35:10.060Z,3.70
2022-11-12T05:37:38.111Z,3.60
2022-11-12T05:40:07.338Z,3.70
2022-11-12T05:42:36.733Z,3.70
2022-11-12T05:45:05.762Z,3.70
2022-11-12T05:47:33.798Z,3.70
2022-11-12T05:50:01.830Z,3.80
2022-11-12T05:52:29.929Z,3.80
2022-11-12T05:54:57.939Z,3.80
2022-11-12T05:57:28.302Z,3.80
2022-11-12T05:59:57.691Z,3.90
2022-11-12T06:02:25.846Z,3.90
2022-11-12T06:04:53.871Z,3.90
2022-11-12T06:07:21.994Z,3.90
2022-11-12T06:09:50.140Z,3.90
2022-11-12T06:12:18.250Z,3.90
2022-11-12T06:14:46.269Z,3.90
2022-11-12T06:17:15.643Z,4.00
2022-11-12T06:19:43.651Z,4.00
2022-11-12T06:22:11.667Z,4.00
2022-11-12T06:24:39.745Z,4.00
2022-11-12T06:27:07.758Z,4.00
2022-11-12T06:29:35.786Z,4.00
2022-11-12T06:32:03.885Z,3.90
2022-11-12T06:34:33.279Z,4.00
2022-11-12T06:37:01.323Z,3.90
2022-11-12T06:39:29.399Z,4.00
2022-11-12T06:41:57.475Z,4.00
2022-11-12T06:44:25.545Z,4.00
2022-11-12T06:46:53.882Z,4.10
2022-11-12T06:49:21.936Z,4.10
2022-11-12T06:51:52.977Z,4.10
2022-11-12T06:54:20.986Z,4.10
2022-11-12T06:56:49.009Z,4.10
2022-11-12T06:59:17.141Z,4.00
2022-11-12T07:01:45.171Z,4.10
2022-11-12T07:04:13.402Z,4.10
2022-11-12T07:06:41.597Z,4.20
2022-11-12T07:09:11.906Z,4.20
2022-11-12T07:11:39.977Z,4.10
2022-11-12T07:14:08.227Z,4.20
2022-11-12T07:16:36.541Z,4.20
2022-11-12T07:19:04.757Z,4.20
2022-11-12T07:21:32.784Z,4.30
2022-11-12T07:24:00.793Z,4.30
2022-11-12T07:26:30.176Z,4.30
2022-11-12T07:28:58.200Z,4.40
2022-11-12T07:31:26.911Z,4.40
2022-11-12T07:33:55.106Z,4.50
2022-11-12T07:36:23.423Z,4.50
2022-11-12T07:38:53.611Z,4.50
2022-11-12T07:41:23.543Z,4.60
2022-11-12T07:43:54.382Z,4.60
2022-11-12T07:46:24.870Z,4.60
2022-11-12T07:48:53.470Z,4.70
2022-11-12T07:51:23.522Z,4.80
2022-11-12T07:53:58.902Z,4.80
2022-11-12T07:56:28.653Z,4.90
2022-11-12T07:58:58.127Z,4.90
2022-11-12T08:01:32.215Z,4.90
2022-11-12T08:04:00.702Z,4.90
2022-11-12T08:06:29.491Z,5.00
2022-11-12T08:08:59.751Z,5.10
2022-11-12T08:11:27.838Z,5.10
2022-11-12T08:13:57.363Z,5.10
2022-11-12T08:16:25.748Z,5.10
2022-11-12T08:18:53.958Z,5.20
2022-11-12T08:21:22.031Z,5.30
2022-11-12T08:23:50.199Z,5.40
2022-11-12T08:26:20.035Z,5.40
2022-11-12T08:28:48.430Z,5.50
2022-11-12T08:31:19.410Z,5.60
2022-11-12T08:33:47.495Z,5.70
2022-11-12T08:36:17.441Z,5.80
2022-11-12T08:38:46.322Z,5.90
2022-11-12T08:41:16.345Z,6.00
2022-11-12T08:43:44.835Z,6.00
2022-11-12T08:46:12.924Z,6.10
2022-11-12T08:48:42.672Z,6.10
2022-11-12T08:51:10.797Z,6.30
2022-11-12T08:53:39.068Z,6.30
2022-11-12T08:56:07.628Z,6.40
2022-11-12T08:58:35.732Z,6.40
2022-11-12T09:01:06.636Z,6.40
2022-11-12T09:03:34.853Z,6.50
2022-11-12T09:06:06.316Z,6.50
2022-11-12T09:08:36.923Z,6.50
2022-11-12T09:11:05.938Z,6.60
2022-11-12T09:13:34.640Z,6.70
2022-11-12T09:16:05.042Z,6.80
2022-11-12T09:18:34.148Z,6.80
2022-11-12T09:21:06.416Z,6.90
2022-11-12T09:23:36.150Z,7.00
2022-11-12T09:26:05.091Z,7.00
2022-11-12T09:28:33.973Z,7.10
2022-11-12T09:31:02.710Z,7.20
2022-11-12T09:33:32.967Z,7.20
2022-11-12T09:36:02.845Z,7.20
2022-11-12T09:38:32.804Z,7.30
2022-11-12T09:41:16.994Z,7.30
2022-11-12T09:43:50.361Z,7.30
2022-11-12T09:46:40.170Z,7.40
2022-11-12T09:49:15.703Z,7.40
2022-11-12T09:51:50.337Z,7.40
2022-11-12T09:54:25.195Z,7.40
2022-11-12T09:56:54.743Z,7.40
2022-11-12T09:59:23.513Z,7.40
2022-11-12T10:02:01.204Z,7.50
2022-11-12T10:04:54.431Z,7.60
2022-11-12T10:07:47.096Z,7.70
2022-11-12T10:10:19.348Z,7.80
2022-11-12T10:12:59.254Z,7.80
2022-11-12T10:16:03.893Z,7.90
2022-11-12T10:18:44.455Z,8.00
2022-11-12T10:21:20.264Z,8.00
2022-11-12T10:23:51.330Z,8.10
2022-11-12T10:26:22.635Z,8.20
2022-11-12T10:28:55.359Z,8.30
2022-11-12T10:31:23.711Z,8.40
2022-11-12T10:33:51.851Z,8.40
2022-11-12T10:36:28.850Z,8.50
2022-11-12T10:38:57.543Z,8.50
2022-11-12T10:41:30.844Z,8.60
2022-11-12T10:44:01.184Z,8.70
2022-11-12T10:46:31.073Z,8.80
2022-11-12T10:49:02.319Z,8.90
2022-11-12T10:51:33.110Z,9.00
2022-11-12T10:54:19.885Z,9.00
2022-11-12T10:56:55.014Z,9.10
2022-11-12T10:59:24.830Z,9.20
2022-11-12T11:01:57.654Z,9.20
2022-11-12T11:04:32.428Z,9.30
2022-11-12T11:07:04.338Z,9.40
2022-11-12T11:09:34.791Z,9.40
2022-11-12T11:12:04.326Z,9.50
2022-11-12T11:14:34.737Z,9.60
2022-11-12T11:17:08.592Z,9.60
2022-11-12T11:19:40.724Z,9.60
2022-11-12T11:22:29.784Z,9.70
2022-11-12T11:25:14.825Z,9.70
2022-11-12T11:27:56.325Z,9.80
2022-11-12T11:30:24.566Z,9.90
2022-11-12T11:33:06.341Z,9.90
2022-11-12T11:35:51.633Z,10.00
2022-11-12T11:38:36.173Z,10.00
2022-11-12T11:41:19.075Z,10.10
2022-11-12T11:44:07.772Z,10.20
2022-11-12T11:46:51.269Z,10.30
2022-11-12T11:49:46.048Z,10.30
2022-11-12T11:52:27.779Z,10.30
2022-11-12T11:55:10.289Z,10.40
2022-11-12T11:57:44.414Z,10.40
2022-11-12T12:00:19.386Z,10.40
2022-11-12T12:03:05.766Z,10.50
2022-11-12T12:05:43.927Z,10.50
2022-11-12T12:08:19.634Z,10.60
2022-11-12T12:11:11.747Z,10.60
2022-11-12T12:13:51.550Z,10.60
2022-11-12T12:16:36.097Z,10.60
2022-11-12T12:19:12.491Z,10.70
2022-11-12T12:21:45.965Z,10.70
2022-11-12T12:24:20.448Z,10.80
2022-11-12T12:26:53.589Z,10.80
2022-11-12T12:29:29.157Z,10.80
2022-11-12T12:32:04.163Z,10.80
2022-11-12T12:34:34.764Z,10.80
2022-11-12T12:37:07.015Z,10.80
2022-11-12T12:39:47.756Z,10.80
2022-11-12T12:42:21.449Z,10.80
2022-11-12T12:45:04.977Z,10.80
2022-11-12T12:47:39.423Z,10.80
2022-11-12T12:50:14.186Z,10.80
2022-11-12T12:53:02.258Z,10.80
2022-11-12T12:55:39.537Z,10.80
2022-11-12T12:58:18.649Z,10.80
2022-11-12T13:00:51.575Z,10.80
2022-11-12T13:03:56.325Z,10.80
2022-11-12T13:06:29.037Z,10.80
2022-11-12T13:09:02.088Z,10.80
2022-11-12T13:12:13.331Z,10.80
2022-11-12T13:15:09.738Z,10.80
2022-11-12T13:17:52.117Z,10.80
2022-11-12T13:20:36.560Z,10.80
2022-11-12T13:23:11.168Z,10.70
2022-11-12T13:25:39.861Z,10.80
2022-11-12T13:28:12.961Z,10.70
2022-11-12T13:31:01.292Z,10.70
2022-11-12T13:33:33.896Z,10.70
2022-11-12T13:36:28.058Z,10.70
2022-11-12T13:39:11.946Z,10.70
2022-11-12T13:41:57.890Z,10.70
2022-11-12T13:44:26.220Z,10.70
2022-11-12T13:46:56.142Z,10.70
2022-11-12T13:49:24.558Z,10.70
2022-11-12T13:51:53.307Z,10.70
2022-11-12T13:54:46.702Z,10.70
2022-11-12T13:57:30.415Z,10.80
2022-11-12T14:00:27.073Z,10.80
2022-11-12T14:02:58.369Z,10.80
2022-11-12T14:05:29.424Z,10.80
2022-11-12T14:08:22.105Z,10.80
2022-11-12T14:11:07.303Z,10.70
2022-11-12T14:14:00.861Z,10.80
2022-11-12T14:16:46.132Z,10.80
2022-11-12T14:19:47.418Z,10.70
2022-11-12T14:22:17.657Z,10.70
2022-11-12T14:24:48.152Z,10.70
2022-11-12T14:27:35.961Z,10.70
2022-11-12T14:30:20.844Z,10.70
2022-11-12T14:32:50.730Z,10.60
2022-11-12T14:35:34.190Z,10.60
2022-11-12T14:38:11.013Z,10.60
2022-11-12T14:40:44.492Z,10.50
2022-11-12T14:43:27.878Z,10.50
2022-11-12T14:45:57.930Z,10.50
2022-11-12T14:48:26.383Z,10.50
2022-11-12T14:51:01.758Z,10.40
2022-11-12T14:53:35.242Z,10.40
2022-11-12T14:56:07.081Z,10.30
2022-11-12T14:58:36.598Z,10.30
2022-11-12T15:02:03.795Z,10.30
2022-11-12T15:04:20.473Z,10.20
2022-11-12T15:06:54.432Z,10.20
2022-11-12T15:09:38.232Z,10.10
2022-11-12T15:12:09.844Z,10.10
2022-11-12T15:14:39.414Z,10.10
2022-11-12T15:17:07.735Z,10.00
2022-11-12T15:19:36.827Z,10.00
2022-11-12T15:22:05.850Z,10.00
2022-11-12T15:24:35.542Z,9.90
2022-11-12T15:27:24.539Z,9.90
2022-11-12T15:30:09.966Z,9.90
2022-11-12T15:32:38.005Z,9.80
2022-11-12T15:35:06.849Z,9.80
2022-11-12T15:37:43.001Z,9.80
2022-11-12T15:40:16.335Z,9.70
2022-11-12T15:42:44.357Z,9.70
2022-11-12T15:45:17.192Z,9.70
2022-11-12T15:47:45.709Z,9.70
2022-11-12T15:50:19.081Z,9.60
2022-11-12T15:52:47.378Z,9.60
2022-11-12T15:55:16.269Z,9.60
2022-11-12T15:57:47.795Z,9.50
2022-11-12T16:00:19.964Z,9.50
2022-11-12T16:02:50.063Z,9.40
2022-11-12T16:05:19.454Z,9.40
2022-11-12T16:07:47.620Z,9.30
2022-11-12T16:10:17.409Z,9.30
2022-11-12T16:12:47.373Z,9.30
2022-11-12T16:15:18.481Z,9.20
2022-11-12T16:17:47.018Z,9.20
2022-11-12T16:20:16.891Z,9.10
2022-11-12T16:22:45.159Z,9.10
2022-11-12T16:25:13.344Z,9.00
2022-11-12T16:27:41.887Z,9.00
2022-11-12T16:30:18.445Z,9.00
2022-11-12T16:32:48.099Z,9.00
2022-11-12T16:35:17.255Z,8.90
2022-11-12T16:37:46.661Z,8.90
2022-11-12T16:40:17.322Z,8.80
2022-11-12T16:42:46.517Z,8.80
2022-11-12T16:45:15.905Z,8.80
2022-11-12T16:47:47.531Z,8.70
2022-11-12T16:50:17.515Z,8.70
2022-11-12T16:52:45.664Z,8.60
2022-11-12T16:55:13.691Z,8.50
2022-11-12T16:57:42.876Z,8.50
2022-11-12T17:00:15.193Z,8.50
2022-11-12T17:02:46.264Z,8.40
2022-11-12T17:05:21.082Z,8.40
2022-11-12T17:07:49.354Z,8.30
2022-11-12T17:10:23.113Z,8.30
2022-11-12T17:12:51.455Z,8.20
2022-11-12T17:15:19.837Z,8.20
2022-11-12T17:17:47.860Z,8.10
2022-11-12T17:20:16.253Z,8.10
2022-11-12T17:22:46.178Z,8.00
2022-11-12T17:25:14.342Z,8.00
2022-11-12T17:27:42.506Z,8.00
2022-11-12T17:30:12.003Z,7.90
2022-11-12T17:32:40.105Z,7.90
2022-11-12T17:35:09.056Z,7.80
2022-11-12T17:37:37.184Z,7.80
2022-11-12T17:40:08.156Z,7.70
2022-11-12T17:42:36.209Z,7.70
2022-11-12T17:45:04.338Z,7.70
2022-11-12T17:47:34.607Z,7.60
2022-11-12T17:50:06.958Z,7.60
2022-11-12T17:52:34.961Z,7.50
2022-11-12T17:55:03.040Z,7.50
2022-11-12T17:57:32.419Z,7.40
2022-11-12T18:00:00.554Z,7.40
2022-11-12T18:02:28.626Z,7.40
2022-11-12T18:04:56.656Z,7.30
2022-11-12T18:07:24.716Z,7.30
2022-11-12T18:09:52.842Z,7.30
2022-11-12T18:12:20.934Z,7.30
2022-11-12T18:14:50.322Z,7.30
2022-11-12T18:17:18.327Z,7.20
2022-11-12T18:19:46.344Z,7.20
2022-11-12T18:22:15.769Z,7.20
2022-11-12T18:24:44.655Z,7.20
2022-11-12T18:27:12.668Z,7.20
2022-11-12T18:29:41.655Z,7.20
2022-11-12T18:32:11.106Z,7.10
2022-11-12T18:34:44.437Z,7.10
2022-11-12T18:37:12.569Z,7.00
2022-11-12T18:39:40.646Z,6.90
2022-11-12T18:42:08.649Z,6.90
2022-11-12T18:44:37.949Z,6.90
2022-11-12T18:47:06.083Z,6.90
2022-11-12T18:49:35.485Z,6.90
2022-11-12T18:52:03.543Z,6.80
2022-11-12T18:54:31.812Z,6.80
2022-11-12T18:56:59.826Z,6.80
2022-11-12T18:59:30.801Z,6.80
2022-11-12T19:01:59.189Z,6.70
2022-11-12T19:04:27.441Z,6.70
2022-11-12T19:06:56.919Z,6.70
2022-11-12T19:09:25.058Z,6.70
2022-11-12T19:11:53.075Z,6.60
2022-11-12T19:14:21.229Z,6.60
2022-11-12T19:16:49.366Z,6.50
2022-11-12T19:19:17.681Z,6.50
2022-11-12T19:21:46.609Z,6.50
2022-11-12T19:24:15.983Z,6.50
2022-11-12T19:26:44.026Z,6.40
2022-11-12T19:29:12.054Z,6.40
2022-11-12T19:31:40.925Z,6.40
2022-11-12T19:34:09.052Z,6.40
2022-11-12T19:36:37.089Z,6.30
2022-11-12T19:39:05.204Z,6.40
2022-11-12T19:41:34.579Z,6.40
2022-11-12T19:44:02.678Z,6.40
2022-11-12T19:46:31.788Z,6.40
2022-11-12T19:48:59.978Z,6.40
2022-11-12T19:51:28.472Z,6.40
2022-11-12T19:53:56.480Z,6.40
2022-11-12T19:56:25.052Z,6.30
2022-11-12T19:58:55.069Z,6.30
2022-11-12T20:01:23.329Z,6.30
2022-11-12T20:03:51.736Z,6.30
2022-11-12T20:06:23.320Z,6.20
2022-11-12T20:08:51.333Z,6.20
2022-11-12T20:11:19.869Z,6.20
2022-11-12T20:13:48.119Z,6.20
2022-11-12T20:16:24.905Z,6.20
2022-11-12T20:18:55.491Z,6.20
2022-11-12T20:21:23.663Z,6.20
2022-11-12T20:23:51.717Z,6.30
2022-11-12T20:26:20.289Z,6.30
2022-11-12T20:28:48.422Z,6.30
2022-11-12T20:31:20.592Z,6.30
2022-11-12T20:33:49.643Z,6.30
2022-11-12T20:36:19.865Z,6.20
2022-11-12T20:38:49.996Z,6.20
2022-11-12T20:41:19.951Z,6.20
2022-11-12T20:43:48.286Z,6.10
2022-11-12T20:46:17.710Z,6.20
2022-11-12T20:48:45.695Z,6.10
2022-11-12T20:51:23.775Z,6.10
2022-11-12T20:53:58.857Z,6.00
2022-11-12T20:56:29.592Z,6.00
2022-11-12T20:58:58.087Z,6.00
2022-11-12T21:01:29.167Z,6.00
2022-11-12T21:03:58.459Z,6.00
2022-11-12T21:06:28.138Z,6.00
2022-11-12T21:08:58.228Z,5.90
2022-11-12T21:11:26.424Z,5.90
2022-11-12T21:13:54.512Z,6.00
2022-11-12T21:16:22.868Z,6.00
2022-11-12T21:18:52.236Z,6.00
2022-11-12T21:21:21.370Z,6.00
2022-11-12T21:23:51.126Z,6.00
2022-11-12T21:26:20.841Z,6.00
2022-11-12T21:28:50.631Z,5.90
2022-11-12T21:31:21.172Z,5.90
2022-11-12T21:33:52.280Z,5.80
2022-11-12T21:36:21.274Z,5.80
2022-11-12T21:38:49.875Z,5.80
2022-11-12T21:41:19.614Z,5.80
2022-11-12T21:43:47.967Z,5.80
2022-11-12T21:46:18.704Z,5.80
2022-11-12T21:48:52.217Z,5.80
2022-11-12T21:51:25.865Z,5.80
2022-11-12T21:53:58.302Z,5.80
2022-11-12T21:56:27.602Z,5.80
2022-11-12T21:58:59.397Z,5.80
2022-11-12T22:01:29.674Z,5.80
2022-11-12T22:03:58.825Z,5.80
2022-11-12T22:06:30.238Z,5.80
2022-11-12T22:08:59.232Z,5.80
2022-11-12T22:11:28.161Z,5.80
2022-11-12T22:13:56.334Z,5.80
2022-11-12T22:16:26.061Z,5.80
2022-11-12T22:18:56.333Z,5.70
2022-11-12T22:21:25.806Z,5.70
2022-11-12T22:23:56.135Z,5.70
2022-11-12T22:26:25.929Z,5.70
2022-11-12T22:28:54.414Z,5.70
2022-11-12T22:31:24.419Z,5.70
2022-11-12T22:33:52.603Z,5.60
2022-11-12T22:36:22.469Z,5.60
2022-11-12T22:38:52.535Z,5.50
2022-11-12T22:41:23.300Z,5.50
2022-11-12T22:43:53.302Z,5.50
2022-11-12T22:46:22.562Z,5.50
2022-11-12T22:48:50.912Z,5.50
2022-11-12T22:51:20.876Z,5.40
2022-11-12T22:53:53.671Z,5.40
2022-11-12T22:56:23.981Z,5.40
2022-11-12T22:58:52.316Z,5.40
2022-11-12T23:01:22.628Z,5.40
2022-11-12T23:03:51.909Z,5.40
2022-11-12T23:06:20.463Z,5.30
2022-11-12T23:08:48.998Z,5.40
2022-11-12T23:11:19.742Z,5.30
2022-11-12T23:13:50.049Z,5.30
2022-11-12T23:16:20.440Z,5.30
2022-11-12T23:18:48.725Z,5.30
2022-11-12T23:21:19.278Z,5.30
2022-11-12T23:23:47.344Z,5.30
2022-11-12T23:26:17.936Z,5.30
2022-11-12T23:28:46.217Z,5.20
2022-11-12T23:31:17.447Z,5.20
2022-11-12T23:33:46.483Z,5.20
2022-11-12T23:36:14.687Z,5.20
2022-11-12T23:38:42.900Z,5.20
2022-11-12T23:41:12.143Z,5.20
2022-11-12T23:43:40.512Z,5.20
2022-11-12T23:46:08.533Z,5.20
2022-11-12T23:48:37.985Z,5.20
2022-11-12T23:51:08.055Z,5.20
2022-11-12T23:53:37.183Z,5.10
2022-11-12T23:56:06.506Z,5.10
2022-11-12T23:58:34.818Z,5.20
